Time;durP1;ratioP1;P1;durP2;ratioP2;P2;SDS_P1;SDS_P2;PMS_P1;PMS_P2;Temp;Humidity;BMP_temperature;BMP_pressure;BME280_temperature;BME280_humidity;BME280_pressure;Samples;Min_cycle;Max_cycle;Signal;HPM_P1;HPM_P2
2021/07/12 00:00:52;;;;;;;6.37;6.03;;;;;;;23.06;58.62;100340.59;1620632;86;21096;-90
2021/07/12 00:03:19;;;;;;;9.25;8.43;;;;;;;23.08;56.01;100338.41;1614162;87;21570;-88
2021/07/12 00:05:47;;;;;;;9.48;8.00;;;;;;;23.11;58.14;100345.48;1633829;87;21179;-88
2021/07/12 00:08:13;;;;;;;9.45;8.55;;;;;;;23.07;58.45;100340.29;1601319;87;21077;-91
2021/07/12 00:10:42;;;;;;;8.93;8.15;;;;;;;22.98;59.01;100339.20;1613793;86;21624;-89
2021/07/12 00:13:09;;;;;;;10.53;9.55;;;;;;;22.93;59.45;100340.55;1614459;87;21062;-87
2021/07/12 00:15:37;;;;;;;10.58;9.55;;;;;;;22.91;59.83;100342.72;1633117;86;21593;-87
2021/07/12 00:18:04;;;;;;;8.80;8.15;;;;;;;22.86;60.30;100334.55;1630288;87;21180;-87
2021/07/12 00:20:31;;;;;;;9.38;8.55;;;;;;;22.83;60.54;100342.72;1613655;87;21062;-87
2021/07/12 00:22:59;;;;;;;10.15;9.10;;;;;;;22.85;60.79;100336.98;1624085;86;21090;-85
2021/07/12 00:25:29;;;;;;;13.05;9.70;;;;;;;22.83;61.03;100339.16;1617224;86;21033;-89
2021/07/12 00:27:55;;;;;;;9.75;8.78;;;;;;;22.82;61.11;100338.91;1620167;87;21118;-88
2021/07/12 00:30:23;;;;;;;10.78;9.58;;;;;;;22.74;61.61;100335.63;1614170;86;21037;-86
2021/07/12 00:32:52;;;;;;;16.23;9.70;;;;;;;22.66;61.83;100337.52;1620111;85;21105;-80
2021/07/12 00:35:20;;;;;;;9.23;8.48;;;;;;;22.63;61.98;100338.60;1652468;83;21054;-81
2021/07/12 00:37:46;;;;;;;9.15;8.50;;;;;;;22.67;62.21;100339.14;1661995;82;21107;-88
2021/07/12 00:40:18;;;;;;;11.90;9.53;;;;;;;22.67;62.23;100334.25;1680485;82;21030;-90
2021/07/12 00:42:48;;;;;;;10.70;9.83;;;;;;;22.64;62.44;100341.58;1679879;83;21017;-91
2021/07/12 00:45:19;;;;;;;10.50;9.70;;;;;;;21.20;62.73;100118.55;1688404;83;21028;-89
2021/07/12 00:47:49;;;;;;;11.25;10.28;;;;;;;22.58;62.90;100338.03;1652388;85;21079;-87
2021/07/12 00:50:18;;;;;;;10.90;10.10;;;;;;;22.58;63.15;100338.03;1681992;83;21072;-91
2021/07/12 00:52:46;;;;;;;11.90;10.78;;;;;;;22.60;63.06;100327.71;1676437;83;21151;-89
2021/07/12 00:55:20;;;;;;;11.70;10.60;;;;;;;22.62;63.09;100326.09;1682926;83;22048;-88
2021/07/12 00:57:49;;;;;;;11.00;10.03;;;;;;;22.56;63.10;100329.34;1630770;86;21106;-88
2021/07/12 01:00:18;;;;;;;10.93;9.98;;;;;;;22.47;63.48;100326.34;1633150;87;21062;-88
2021/07/12 01:02:46;;;;;;;13.50;9.63;;;;;;;22.42;63.85;100327.69;1623906;85;21003;-89
2021/07/12 01:05:16;;;;;;;10.28;9.45;;;;;;;22.38;63.86;100331.19;1692945;83;21042;-87
2021/07/12 01:07:44;;;;;;;9.75;8.98;;;;;;;22.37;63.88;100332.28;1685335;83;21090;-88
2021/07/12 01:10:14;;;;;;;11.20;10.40;;;;;;;22.37;63.81;100339.88;1683191;83;21009;-87
2021/07/12 01:13:25;;;;;;;15.18;10.60;;;;;;;22.37;63.87;100334.45;1676261;83;21071;-91
2021/07/12 01:16:22;;;;;;;9.98;9.28;;;;;;;22.39;63.70;100328.76;1678055;84;21049;-86
2021/07/12 01:19:26;;;;;;;10.38;9.53;;;;;;;22.40;63.95;100324.42;1676429;84;21074;-90
2021/07/12 01:22:18;;;;;;;10.48;9.40;;;;;;;22.45;63.94;100329.88;1671177;83;21141;-87
2021/07/12 01:25:24;;;;;;;9.53;8.75;;;;;;;22.51;63.79;100326.08;1677867;84;21024;-87
2021/07/12 01:28:22;;;;;;;11.15;10.35;;;;;;;22.49;63.97;100327.41;1666913;85;21219;-87
2021/07/12 01:31:06;;;;;;;11.33;10.53;;;;;;;22.46;63.90;100326.61;1673004;82;21075;-90
2021/07/12 01:33:42;;;;;;;10.88;9.75;;;;;;;22.41;64.00;100325.23;1681007;82;20985;-80
2021/07/12 01:36:18;;;;;;;9.53;8.93;;;;;;;22.43;63.87;100331.20;1684112;81;20994;-87
2021/07/12 01:38:52;;;;;;;11.83;10.63;;;;;;;22.44;63.77;100326.88;1675198;81;21760;-85
2021/07/12 01:41:33;;;;;;;10.48;9.68;;;;;;;22.40;63.84;100341.27;1689120;80;21676;-88
2021/07/12 01:44:26;;;;;;;11.80;10.65;;;;;;;22.37;63.88;100337.72;1709118;82;21475;-85
2021/07/12 01:47:10;;;;;;;10.43;9.63;;;;;;;22.37;64.00;100337.72;1700737;83;21006;-90
2021/07/12 01:50:07;;;;;;;10.68;9.85;;;;;;;22.38;63.99;100340.17;1684651;82;21129;-91
2021/07/12 01:53:02;;;;;;;10.80;9.90;;;;;;;22.44;63.78;100345.88;1701058;83;21062;-86
2021/07/12 01:55:53;;;;;;;13.45;11.70;;;;;;;22.50;63.57;100344.00;1693510;82;21131;-88
2021/07/12 01:58:31;;;;;;;12.47;11.33;;;;;;;22.51;63.45;100353.80;1641002;84;21055;-91
2021/07/12 02:01:00;;;;;;;10.85;10.05;;;;;;;22.49;63.56;100354.58;1702402;83;21114;-87
2021/07/12 02:03:29;;;;;;;11.63;10.45;;;;;;;22.49;63.77;100344.55;1701097;83;20984;-92
2021/07/12 02:06:00;;;;;;;12.18;10.15;;;;;;;22.49;63.95;100347.78;1692735;83;21278;-91
2021/07/12 02:08:27;;;;;;;11.22;10.43;;;;;;;22.48;64.08;100340.19;1689834;83;21027;-86
2021/07/12 02:10:57;;;;;;;10.58;9.68;;;;;;;22.56;64.11;100344.28;1658684;82;21050;-84
2021/07/12 02:13:28;;;;;;;10.08;9.38;;;;;;;22.61;64.15;100350.28;1675400;83;20991;-85
2021/07/12 02:16:02;;;;;;;12.25;11.08;;;;;;;22.58;64.09;100347.54;1690619;83;21012;-86
2021/07/12 02:18:34;;;;;;;10.75;9.85;;;;;;;22.53;64.21;100346.19;1682837;82;21527;-87
2021/07/12 02:21:22;;;;;;;11.55;10.65;;;;;;;22.48;64.47;100342.09;1682766;84;21098;-88
2021/07/12 02:23:51;;;;;;;11.22;10.30;;;;;;;22.50;64.56;100335.84;1682650;83;21184;-89
2021/07/12 02:26:22;;;;;;;11.00;10.13;;;;;;;22.53;64.53;100338.04;1684259;83;21098;-88
2021/07/12 02:28:51;;;;;;;11.43;10.32;;;;;;;22.51;64.79;100330.70;1671360;83;21059;-88
2021/07/12 02:31:24;;;;;;;12.60;11.70;;;;;;;22.48;65.07;100329.88;1688465;85;21001;-87
2021/07/12 02:33:52;;;;;;;11.78;10.78;;;;;;;22.50;64.99;100334.49;1652315;82;21295;-84
2021/07/12 02:36:19;;;;;;;12.33;11.53;;;;;;;22.54;64.88;100334.22;1656934;83;21053;-87
2021/07/12 02:38:48;;;;;;;11.90;10.90;;;;;;;22.60;64.77;100336.41;1643348;83;21081;-87
2021/07/12 02:41:16;;;;;;;11.90;10.72;;;;;;;22.61;64.52;100330.72;1657912;81;20978;-88
2021/07/12 02:43:43;;;;;;;12.30;11.30;;;;;;;22.66;64.47;100324.46;1660658;82;21050;-88
2021/07/12 02:46:11;;;;;;;14.87;11.12;;;;;;;22.78;64.06;100321.52;1650701;83;21134;-87
2021/07/12 02:48:39;;;;;;;10.78;9.75;;;;;;;22.90;63.62;100324.22;1660729;85;21587;-88
2021/07/12 02:51:15;;;;;;;11.55;10.63;;;;;;;23.03;62.82;100326.98;1652744;85;21135;-89
2021/07/12 02:53:49;;;;;;;13.50;9.85;;;;;;;23.15;61.75;100322.65;1625602;86;21122;-89
2021/07/12 02:56:16;;;;;;;10.53;9.65;;;;;;;23.29;61.40;100318.82;1687884;83;21078;-88
2021/07/12 02:58:42;;;;;;;10.38;9.58;;;;;;;23.46;60.73;100304.92;1673187;84;20995;-89
2021/07/12 03:01:12;;;;;;;10.95;9.88;;;;;;;23.62;60.19;100304.33;1687044;83;21046;-90
2021/07/12 03:03:40;;;;;;;10.85;10.00;;;;;;;23.83;59.45;100304.59;1696642;84;21030;-88
2021/07/12 03:06:13;;;;;;;10.75;9.90;;;;;;;24.06;58.98;100299.59;1670611;83;21095;-90
2021/07/12 03:09:08;;;;;;;10.82;9.90;;;;;;;24.32;58.42;100300.81;1672482;84;21102;-88
2021/07/12 03:11:58;;;;;;;11.12;10.32;;;;;;;24.61;57.26;100306.40;1699615;83;21639;-89
2021/07/12 03:14:36;;;;;;;10.75;9.93;;;;;;;24.82;56.37;100305.14;1699785;84;21086;-90
2021/07/12 03:17:08;;;;;;;12.88;10.58;;;;;;;24.83;55.78;100308.70;1698226;83;21638;-89
2021/07/12 03:19:39;;;;;;;12.33;11.05;;;;;;;24.72;56.17;100309.88;1631871;85;20995;-88
2021/07/12 03:22:10;;;;;;;10.93;9.95;;;;;;;24.59;56.59;100323.03;1644143;86;21009;-90
2021/07/12 03:24:41;;;;;;;11.60;10.25;;;;;;;24.49;56.29;100321.16;1635054;86;21071;-89
2021/07/12 03:27:16;;;;;;;11.50;10.53;;;;;;;24.56;56.02;100319.49;1628054;86;21086;-92
2021/07/12 03:29:45;;;;;;;11.05;10.13;;;;;;;24.86;55.87;100328.56;1647923;85;21071;-92
2021/07/12 03:32:13;;;;;;;10.45;9.53;;;;;;;25.19;54.96;100320.67;1659617;83;21092;-89
2021/07/12 03:34:42;;;;;;;10.72;9.83;;;;;;;25.55;53.46;100325.27;1679300;82;20980;-90
2021/07/12 03:37:08;;;;;;;10.13;9.30;;;;;;;25.82;52.55;100319.78;1682302;79;21034;-91
2021/07/12 03:39:36;;;;;;;10.68;9.55;;;;;;;25.97;52.65;100327.01;1692352;80;20995;-86
2021/07/12 03:42:05;;;;;;;11.20;10.18;;;;;;;26.14;51.81;100323.80;1692735;81;21015;-89
2021/07/12 03:44:34;;;;;;;11.22;10.20;;;;;;;26.16;52.20;100330.61;1693464;80;20966;-91
2021/07/12 03:47:04;;;;;;;11.50;10.80;;;;;;;26.01;52.60;100338.44;1706044;79;21142;-87
2021/07/12 03:49:31;;;;;;;13.00;11.00;;;;;;;25.38;53.30;100277.16;1707385;79;21067;-87
2021/07/12 03:51:59;;;;;;;9.98;9.28;;;;;;;25.51;54.09;100328.87;1695668;79;20982;-90
2021/07/12 03:54:25;;;;;;;11.15;10.10;;;;;;;25.55;54.46;100326.62;1705048;80;21074;-86
2021/07/12 03:56:53;;;;;;;10.05;9.35;;;;;;;25.81;53.83;100322.27;1700308;81;21602;-89
2021/07/12 03:59:20;;;;;;;12.75;10.58;;;;;;;26.14;53.00;100320.50;1687811;84;21646;-87
2021/07/12 04:01:46;;;;;;;19.98;9.60;;;;;;;26.44;52.20;100319.83;1691543;83;21025;-88
2021/07/12 04:04:13;;;;;;;9.83;8.95;;;;;;;26.57;51.31;100317.73;1675233;84;21074;-91
2021/07/12 04:06:39;;;;;;;10.40;9.43;;;;;;;26.65;50.94;100311.37;1633063;86;21560;-91
2021/07/12 04:09:08;;;;;;;9.65;8.68;;;;;;;26.71;51.25;100323.31;1692633;83;21102;-88
2021/07/12 04:11:35;;;;;;;10.43;9.73;;;;;;;26.63;51.25;100318.49;1681464;84;20998;-89
2021/07/12 04:14:05;;;;;;;10.30;9.43;;;;;;;26.46;51.23;100318.98;1694095;84;21103;-91
2021/07/12 04:16:33;;;;;;;10.45;9.55;;;;;;;26.16;52.79;100315.59;1693327;83;21088;-90
2021/07/12 04:19:00;;;;;;;10.08;9.20;;;;;;;25.86;53.89;100328.20;1686788;84;21580;-89
2021/07/12 04:21:26;;;;;;;11.03;8.93;;;;;;;25.64;53.78;100324.09;1664940;84;20996;-92
2021/07/12 04:23:54;;;;;;;8.88;8.13;;;;;;;25.46;54.12;100310.61;1680579;84;21128;-89
2021/07/12 04:26:21;;;;;;;10.18;9.20;;;;;;;25.29;54.16;100312.41;1699169;83;21109;-88
2021/07/12 04:28:48;;;;;;;8.80;8.30;;;;;;;25.16;54.56;100311.70;1674707;84;21042;-92
2021/07/12 04:31:14;;;;;;;10.30;9.45;;;;;;;25.10;54.39;100316.38;1679395;84;21130;-88
2021/07/12 04:33:40;;;;;;;9.85;8.93;;;;;;;25.08;54.20;100314.48;1691914;82;21087;-87
2021/07/12 04:36:10;;;;;;;8.50;7.87;;;;;;;25.02;53.76;100317.00;1692056;80;21031;-88
2021/07/12 04:38:39;;;;;;;9.38;8.55;;;;;;;24.91;53.46;100314.90;1692566;81;21063;-88
2021/07/12 04:41:09;;;;;;;8.65;7.95;;;;;;;24.87;53.79;100317.94;1689275;82;21015;-86
2021/07/12 04:43:35;;;;;;;8.98;8.30;;;;;;;24.90;53.90;100318.71;1688805;81;20988;-89
2021/07/12 04:46:03;;;;;;;8.53;7.80;;;;;;;24.96;53.41;100312.67;1696715;79;21118;-90
2021/07/12 04:48:31;;;;;;;8.88;8.18;;;;;;;24.92;53.02;100317.91;1686087;79;21055;-90
2021/07/12 04:50:58;;;;;;;8.83;8.10;;;;;;;24.90;53.11;100321.44;1717888;79;21039;-89
2021/07/12 04:53:26;;;;;;;7.80;7.37;;;;;;;24.85;53.47;100314.68;1712717;80;21402;-90
2021/07/12 04:55:54;;;;;;;8.00;7.50;;;;;;;24.80;53.38;100320.16;1705200;79;21652;-88
2021/07/12 04:58:20;;;;;;;8.68;8.08;;;;;;;24.76;53.64;100321.83;1654389;85;21107;-91
2021/07/12 05:00:49;;;;;;;9.55;7.75;;;;;;;24.76;53.88;100313.66;1664896;82;21185;-91
2021/07/12 05:03:20;;;;;;;9.00;8.38;;;;;;;24.78;53.65;100314.19;1653361;85;21472;-89
2021/07/12 05:05:46;;;;;;;8.18;7.67;;;;;;;24.79;53.38;100319.89;1651432;85;21027;-90
2021/07/12 05:08:13;;;;;;;9.73;8.90;;;;;;;24.77;53.21;100319.36;1654810;85;21077;-90
2021/07/12 05:10:41;;;;;;;9.80;7.85;;;;;;;24.76;53.57;100324.00;1680830;84;21038;-87
2021/07/12 05:13:09;;;;;;;10.50;9.35;;;;;;;24.76;53.48;100324.00;1680818;84;21036;-92
2021/07/12 05:15:37;;;;;;;9.68;9.00;;;;;;;24.77;53.66;100324.81;1687625;84;21114;-91
2021/07/12 05:18:04;;;;;;;9.83;8.95;;;;;;;24.83;53.85;100333.23;1694468;83;21078;-94
2021/07/12 05:20:32;;;;;;;8.88;8.05;;;;;;;24.97;53.65;100329.30;1672905;84;21075;-92
2021/07/12 05:22:59;;;;;;;9.55;8.73;;;;;;;25.14;53.98;100324.25;1697307;84;21063;-90
2021/07/12 05:25:26;;;;;;;13.20;8.00;;;;;;;25.32;53.08;100320.04;1670694;84;21035;-89
2021/07/12 05:27:53;;;;;;;10.90;8.75;;;;;;;25.50;52.76;100318.48;1702463;83;21473;-89
2021/07/12 05:30:22;;;;;;;12.03;8.70;;;;;;;25.87;52.42;100319.73;1669111;84;20980;-90
2021/07/12 05:32:50;;;;;;;8.75;8.15;;;;;;;26.28;51.57;100327.44;1705176;83;21027;-91
2021/07/12 05:35:19;;;;;;;8.58;7.80;;;;;;;26.75;49.37;100329.80;1690870;83;21126;-89
2021/07/12 05:37:52;;;;;;;8.58;6.37;;;;;;;27.10;48.67;100329.52;1691132;84;21162;-90
2021/07/12 05:40:24;;;;;;;8.05;6.87;;;;;;;27.19;47.81;100327.72;1679879;84;21044;-89
2021/07/12 05:42:55;;;;;;;8.08;7.30;;;;;;;27.12;48.09;100334.13;1681005;84;21103;-86
2021/07/12 05:45:46;;;;;;;;;;;;;;;;;;;;;
2021/07/12 05:48:23;;;;;;;;;;;;;;;;;;;;;
2021/07/12 05:50:44;;;;;;;7.97;7.50;;;;;;;26.55;49.89;100340.44;1704016;82;21037;-88
2021/07/12 05:53:15;;;;;;;10.58;8.45;;;;;;;26.34;50.77;100350.84;1707972;80;21072;-89
2021/07/12 05:55:48;;;;;;;8.40;7.83;;;;;;;26.28;51.15;100352.59;1691764;81;21046;-87
2021/07/12 05:58:25;;;;;;;8.78;8.15;;;;;;;26.18;51.85;100343.95;1687609;80;21119;-89
2021/07/12 06:00:56;;;;;;;10.93;9.70;;;;;;;26.07;52.49;100354.21;1611929;85;21182;-93
2021/07/12 06:03:23;;;;;;;9.28;8.65;;;;;;;26.00;53.48;100351.02;1631257;86;21138;-91
2021/07/12 06:05:50;;;;;;;8.78;8.13;;;;;;;26.14;53.26;100346.45;1642974;86;21189;-91
2021/07/12 06:08:24;;;;;;;9.18;8.58;;;;;;;26.35;52.83;100344.82;1643859;86;21019;-90
2021/07/12 06:10:52;;;;;;;8.28;7.78;;;;;;;26.54;52.58;100343.47;1628838;86;21595;-89
2021/07/12 06:13:21;;;;;;;8.33;7.70;;;;;;;26.71;52.45;100344.34;1612467;85;21052;-92
2021/07/12 06:15:51;;;;;;;8.43;7.72;;;;;;;26.94;52.46;100355.76;1589516;86;21070;-91
2021/07/12 06:18:19;;;;;;;9.08;8.13;;;;;;;27.22;51.98;100359.13;1612917;83;21082;-91
2021/07/12 06:20:45;;;;;;;8.78;7.67;;;;;;;27.57;51.14;100357.16;1619385;87;21099;-91
2021/07/12 06:23:11;;;;;;;7.60;6.87;;;;;;;27.87;50.18;100366.48;1631356;85;21296;-91
2021/07/12 06:25:38;;;;;;;7.35;6.62;;;;;;;28.03;49.31;100369.22;1646517;86;21024;-91
2021/07/12 06:28:05;;;;;;;7.03;6.47;;;;;;;28.06;48.94;100374.06;1641078;85;21528;-91
2021/07/12 06:30:32;;;;;;;7.00;6.45;;;;;;;28.01;48.52;100385.15;1641791;86;21092;-91
2021/07/12 06:32:58;;;;;;;17.15;7.30;;;;;;;27.91;48.64;100385.34;1658820;85;21100;-92
2021/07/12 06:35:24;;;;;;;7.45;6.95;;;;;;;27.79;48.69;100376.22;1635787;86;21042;-88
2021/07/12 06:37:55;;;;;;;7.22;6.55;;;;;;;27.68;48.95;100389.85;1641433;85;21082;-90
2021/07/12 06:40:22;;;;;;;8.33;7.08;;;;;;;27.58;49.26;100393.03;1626553;85;21040;-83
2021/07/12 06:42:49;;;;;;;7.05;6.45;;;;;;;27.51;49.44;100389.05;1645817;86;21710;-91
2021/07/12 06:45:16;;;;;;;7.45;6.78;;;;;;;27.45;49.71;100402.59;1609331;86;21210;-91
2021/07/12 06:47:43;;;;;;;8.05;7.08;;;;;;;27.32;50.18;100408.27;1597769;87;21629;-91
2021/07/12 06:50:12;;;;;;;13.28;7.85;;;;;;;27.14;50.80;100396.20;1607665;87;21052;-91
2021/07/12 06:52:39;;;;;;;9.45;6.67;;;;;;;26.98;51.34;100394.27;1612302;88;21082;-91
2021/07/12 06:55:07;;;;;;;8.53;7.33;;;;;;;26.86;51.77;100387.89;1604997;85;21030;-91
2021/07/12 06:57:34;;;;;;;8.25;7.55;;;;;;;26.77;52.24;100384.20;1628564;85;21035;-91
2021/07/12 07:00:00;;;;;;;8.50;7.90;;;;;;;26.58;52.93;100390.44;1620307;85;21086;-90
2021/07/12 07:02:26;;;;;;;8.18;7.70;;;;;;;26.47;53.47;100388.14;1588679;84;21111;-91
2021/07/12 07:04:54;;;;;;;9.00;8.35;;;;;;;26.38;53.65;100385.23;1597649;87;21141;-89
2021/07/12 07:07:20;;;;;;;8.83;8.15;;;;;;;26.35;53.97;100388.02;1604257;87;21100;-91
2021/07/12 07:09:48;;;;;;;11.78;8.53;;;;;;;26.34;54.14;100378.73;1596466;88;21156;-89
2021/07/12 07:12:16;;;;;;;9.25;8.48;;;;;;;26.33;54.26;100377.09;1562622;90;21130;-90
2021/07/12 07:14:47;;;;;;;9.10;8.40;;;;;;;26.33;54.45;100367.53;1550524;90;21170;-91
2021/07/12 07:17:14;;;;;;;8.48;7.83;;;;;;;26.30;54.50;100362.11;1561610;90;21032;-91
2021/07/12 07:19:43;;;;;;;9.25;8.60;;;;;;;26.33;54.55;100368.90;1577965;89;21158;-92
2021/07/12 07:22:09;;;;;;;9.40;8.50;;;;;;;26.37;54.52;100371.30;1576960;89;21095;-93
2021/07/12 07:24:49;;;;;;;9.05;8.38;;;;;;;26.35;54.71;100362.05;1611269;87;21400;-90
2021/07/12 07:27:18;;;;;;;8.43;7.87;;;;;;;26.33;54.83;100364.80;1612047;86;21071;-92
2021/07/12 07:29:47;;;;;;;8.70;7.92;;;;;;;26.32;55.09;100364.00;1615506;87;21530;-90
2021/07/12 07:32:14;;;;;;;9.20;8.08;;;;;;;26.32;55.14;100362.63;1576202;87;21126;-91
2021/07/12 07:34:44;;;;;;;8.68;7.75;;;;;;;26.35;55.29;100367.52;1608860;87;21087;-93
2021/07/12 07:37:13;;;;;;;8.25;7.80;;;;;;;26.42;55.21;100362.48;1615809;87;21106;-91
2021/07/12 07:39:40;;;;;;;8.13;7.42;;;;;;;26.45;55.14;100367.93;1604205;86;21122;-92
2021/07/12 07:42:09;;;;;;;8.18;7.67;;;;;;;26.49;55.19;100365.42;1617618;87;21667;-91
2021/07/12 07:44:36;;;;;;;10.80;7.92;;;;;;;25.51;54.93;100197.33;1607476;86;21096;-91
2021/07/12 07:47:02;;;;;;;8.98;8.15;;;;;;;26.67;55.12;100361.89;1592180;89;21051;-91
2021/07/12 07:49:34;;;;;;;11.83;8.85;;;;;;;26.75;54.99;100357.14;1566147;90;21058;-90
2021/07/12 07:52:00;;;;;;;8.30;7.80;;;;;;;26.90;54.75;100362.11;1594832;86;21069;-91
2021/07/12 07:54:30;;;;;;;8.28;7.65;;;;;;;27.08;54.07;100363.20;1606449;87;21128;-92
2021/07/12 07:57:04;;;;;;;8.20;7.40;;;;;;;27.22;53.81;100345.45;1594266;87;21553;-90
2021/07/12 07:59:32;;;;;;;8.80;7.25;;;;;;;27.42;53.03;100345.13;1578146;89;21071;-92
2021/07/12 08:02:03;;;;;;;7.67;7.10;;;;;;;27.63;52.78;100351.04;1574262;89;21005;-89
2021/07/12 08:04:30;;;;;;;6.58;6.28;;;;;;;27.89;52.10;100357.44;1617364;85;21059;-90
2021/07/12 08:06:58;;;;;;;6.85;6.45;;;;;;;28.13;51.15;100348.45;1621093;85;21074;-92
2021/07/12 08:09:25;;;;;;;7.45;6.95;;;;;;;28.34;50.45;100351.56;1647213;85;21114;-91
2021/07/12 08:11:55;;;;;;;7.20;6.70;;;;;;;28.49;49.73;100342.19;1642162;83;21056;-93
2021/07/12 08:14:21;;;;;;;5.58;5.28;;;;;;;28.36;49.66;100295.06;1633486;85;21729;-91
2021/07/12 08:16:48;;;;;;;7.97;7.35;;;;;;;28.77;49.14;100335.28;1640482;86;21033;-91
2021/07/12 08:19:17;;;;;;;6.97;6.45;;;;;;;28.90;49.13;100328.92;1639933;86;21125;-92
2021/07/12 08:21:45;;;;;;;6.33;5.92;;;;;;;29.01;48.15;100336.89;1633585;86;21002;-91
2021/07/12 08:24:13;;;;;;;7.00;6.33;;;;;;;29.04;47.93;100341.20;1628781;86;22256;-93
2021/07/12 08:26:41;;;;;;;7.10;6.50;;;;;;;29.14;48.70;100342.09;1587862;88;21162;-92
2021/07/12 08:29:08;;;;;;;6.95;6.35;;;;;;;29.25;47.67;100349.78;1607899;88;21050;-90
2021/07/12 08:31:35;;;;;;;7.42;6.62;;;;;;;29.32;47.58;100350.69;1612032;88;21031;-93
2021/07/12 08:34:01;;;;;;;5.87;5.47;;;;;;;29.43;47.16;100353.42;1615627;87;21113;-92
2021/07/12 08:36:27;;;;;;;6.50;6.10;;;;;;;29.54;46.81;100341.61;1606364;86;21078;-90
2021/07/12 08:38:54;;;;;;;6.97;6.10;;;;;;;29.61;46.12;100340.59;1604315;84;21003;-91
2021/07/12 08:41:21;;;;;;;6.42;6.03;;;;;;;29.65;46.08;100335.28;1599718;86;21117;-91
2021/07/12 08:43:51;;;;;;;6.97;6.45;;;;;;;29.74;45.92;100327.89;1612662;86;21050;-92
2021/07/12 08:46:17;;;;;;;6.75;6.25;;;;;;;29.82;46.32;100324.92;1614942;87;21175;-90
2021/07/12 08:48:47;;;;;;;8.60;6.47;;;;;;;29.92;46.08;100327.97;1633091;86;21144;-91
2021/07/12 08:51:15;;;;;;;7.42;6.83;;;;;;;29.99;45.81;100319.50;1635761;86;21093;-90
2021/07/12 08:53:42;;;;;;;6.05;5.72;;;;;;;30.00;45.65;100319.73;1611842;87;21159;-89
2021/07/12 08:56:08;;;;;;;6.22;5.87;;;;;;;30.04;45.44;100315.78;1623916;86;21057;-91
2021/07/12 08:58:34;;;;;;;6.67;5.78;;;;;;;30.13;44.93;100311.69;1615891;87;21027;-92
2021/07/12 09:01:09;;;;;;;5.42;5.03;;;;;;;30.18;45.02;100313.72;1631342;86;21548;-92
2021/07/12 09:03:43;;;;;;;4.97;4.75;;;;;;;30.29;43.76;100315.60;1627030;86;21062;-90
2021/07/12 09:06:16;;;;;;;5.30;4.85;;;;;;;30.14;43.62;100282.52;1629314;86;21075;-93
2021/07/12 09:08:59;;;;;;;4.87;4.58;;;;;;;30.43;43.34;100312.72;1623150;86;21061;-90
2021/07/12 09:11:43;;;;;;;4.58;4.37;;;;;;;30.47;43.08;100314.48;1621403;83;21153;-93
2021/07/12 09:15:56;;;;;;;4.92;4.67;;;;;;;30.58;43.14;100318.31;1818438;77;22953;-92
2021/07/12 09:18:24;;;;;;;4.97;4.65;;;;;;;30.58;41.30;100325.19;1789947;77;21023;-94
2021/07/12 09:20:52;;;;;;;4.53;4.17;;;;;;;30.55;41.05;100345.08;1797952;77;21061;-93
2021/07/12 09:23:22;;;;;;;6.58;3.85;;;;;;;30.52;40.46;100322.36;1759455;77;21589;-91
2021/07/12 09:26:04;;;;;;;4.97;4.47;;;;;;;30.46;39.97;100338.21;1713268;82;21058;-90
2021/07/12 09:31:36;;;;;;;5.78;5.17;;;;;;;30.37;40.91;100338.19;1699857;82;21074;-96
2021/07/12 09:34:06;;;;;;;4.62;4.42;;;;;;;30.36;41.24;100342.06;1698392;81;21107;-94
2021/07/12 09:36:37;;;;;;;4.62;4.22;;;;;;;30.30;41.45;100353.52;1679276;83;21065;-96
2021/07/12 09:39:40;;;;;;;6.33;5.12;;;;;;;30.28;41.42;100364.83;1681050;83;21114;-96
2021/07/12 09:42:18;;;;;;;3.83;3.62;;;;;;;30.26;41.59;100356.09;1705431;80;21121;-95
2021/07/12 09:45:02;;;;;;;3.83;3.52;;;;;;;30.17;40.68;100369.81;1697876;80;21063;-96
2021/07/12 09:47:42;;;;;;;3.50;3.22;;;;;;;30.03;39.68;100364.45;1697622;81;21133;-94
2021/07/12 09:50:23;;;;;;;5.42;4.05;;;;;;;29.87;40.35;100370.13;1719432;81;21118;-96
2021/07/12 09:53:04;;;;;;;3.75;3.45;;;;;;;29.77;40.97;100359.43;1716713;80;21182;-96
2021/07/12 09:55:45;;;;;;;5.58;3.30;;;;;;;29.68;41.36;100359.35;1723985;81;21020;-95
2021/07/12 10:01:00;;;;;;;3.40;3.20;;;;;;;29.55;41.06;100368.50;1728964;81;21026;-95
2021/07/12 10:03:39;;;;;;;3.62;3.52;;;;;;;29.46;41.40;100366.53;1704820;82;21050;-94
2021/07/12 10:07:06;;;;;;;3.60;3.20;;;;;;;29.36;41.41;100368.72;1688563;82;20968;-96
2021/07/12 10:09:48;;;;;;;4.62;4.40;;;;;;;29.26;41.57;100371.17;1697452;82;21001;-95
2021/07/12 10:12:21;;;;;;;4.42;4.15;;;;;;;29.12;42.35;100361.59;1739717;77;21089;-94
2021/07/12 10:14:58;;;;;;;5.83;4.33;;;;;;;29.07;42.65;100363.91;1738264;79;21447;-86
2021/07/12 10:17:28;;;;;;;7.17;3.87;;;;;;;28.98;43.27;100368.52;1702986;81;21069;-85
2021/07/12 10:19:56;;;;;;;4.17;3.87;;;;;;;28.87;43.58;100366.57;1725559;80;21142;-86
2021/07/12 10:22:30;;;;;;;4.20;3.87;;;;;;;28.78;43.97;100368.43;1741472;80;21017;-85
2021/07/12 10:25:04;;;;;;;3.98;3.77;;;;;;;28.70;44.24;100365.87;1719529;80;21153;-87
2021/07/12 10:27:52;;;;;;;5.70;4.47;;;;;;;28.65;45.18;100366.55;1728436;80;21070;-87
2021/07/12 10:30:30;;;;;;;5.03;4.80;;;;;;;28.62;45.31;100369.92;1732448;80;21510;-85
2021/07/12 10:33:03;;;;;;;5.15;4.72;;;;;;;28.56;45.53;100368.39;1703835;80;21588;-86
2021/07/12 10:35:44;;;;;;;6.90;4.33;;;;;;;28.49;45.83;100372.91;1722996;80;21014;-87
2021/07/12 10:38:19;;;;;;;4.62;4.33;;;;;;;28.43;45.48;100370.84;1719589;80;20952;-87
2021/07/12 10:41:05;;;;;;;6.05;5.58;;;;;;;28.35;46.00;100357.88;1732015;80;21069;-88
2021/07/12 10:43:46;;;;;;;6.85;4.55;;;;;;;28.27;46.46;100352.53;1703973;80;20971;-86
2021/07/12 10:46:35;;;;;;;5.85;5.05;;;;;;;28.21;46.79;100342.80;1704208;81;21185;-90
2021/07/12 10:49:34;;;;;;;5.75;5.00;;;;;;;28.14;47.13;100340.49;1627691;84;21119;-86
2021/07/12 10:52:00;;;;;;;6.55;4.92;;;;;;;28.09;47.41;100332.37;1697100;82;21185;-89
2021/07/12 10:54:29;;;;;;;5.62;5.33;;;;;;;28.03;48.02;100328.13;1692657;82;21048;-86
2021/07/12 10:57:00;;;;;;;4.72;4.50;;;;;;;27.98;48.06;100336.44;1678308;83;21051;-87
2021/07/12 10:59:38;;;;;;;5.62;5.10;;;;;;;27.95;47.44;100332.93;1656586;83;21054;-87
2021/07/12 11:02:21;;;;;;;4.67;4.47;;;;;;;27.90;47.91;100330.31;1705625;82;21549;-87
2021/07/12 11:05:00;;;;;;;5.37;4.65;;;;;;;27.84;48.05;100328.73;1690882;83;21242;-89
2021/07/12 11:07:45;;;;;;;5.80;5.17;;;;;;;27.79;48.03;100339.25;1705229;82;21049;-86
2021/07/12 11:10:33;;;;;;;4.92;4.72;;;;;;;27.73;48.04;100328.16;1692335;83;21003;-83
2021/07/12 11:13:05;;;;;;;5.47;5.08;;;;;;;27.62;48.17;100317.95;1746908;80;21493;-87
2021/07/12 11:15:36;;;;;;;6.15;4.50;;;;;;;27.50;48.66;100304.77;1759164;79;21045;-84
2021/07/12 11:18:27;;;;;;;4.67;4.47;;;;;;;27.42;49.17;100292.33;1732265;81;21029;-88
2021/07/12 11:21:03;;;;;;;5.22;4.80;;;;;;;27.35;49.46;100289.97;1726302;81;20964;-86
2021/07/12 11:23:56;;;;;;;5.42;5.15;;;;;;;27.25;50.14;100277.83;1667605;81;21110;-83
2021/07/12 11:26:27;;;;;;;5.15;4.85;;;;;;;27.22;50.25;100275.15;1655459;85;21157;-87
2021/07/12 11:29:05;;;;;;;4.87;4.35;;;;;;;27.19;50.62;100278.48;1659649;85;21049;-86
2021/07/12 11:32:07;;;;;;;;;;;;;;;27.18;50.24;100272.73;1657004;85;21041;-84
2021/07/12 11:34:39;;;;;;;5.08;4.60;;;;;;;27.16;50.29;100281.27;1701573;81;20101;-86
2021/07/12 11:37:23;;;;;;;4.20;3.98;;;;;;;27.07;50.95;100285.80;1694485;83;21089;-84
2021/07/12 11:39:55;;;;;;;5.00;4.67;;;;;;;27.08;51.57;100287.98;1720490;81;21041;-87
2021/07/12 11:42:39;;;;;;;4.50;4.30;;;;;;;27.07;51.67;100274.03;1720634;81;21105;-85
2021/07/12 11:45:25;;;;;;;5.70;5.28;;;;;;;27.10;52.40;100277.55;1693509;82;21862;-85
2021/07/12 11:47:57;;;;;;;5.78;5.28;;;;;;;27.08;52.69;100264.73;1678919;83;21044;-89
2021/07/12 11:50:33;;;;;;;6.33;5.72;;;;;;;27.07;52.91;100252.98;1681939;83;21054;-83
2021/07/12 11:53:06;;;;;;;5.50;5.08;;;;;;;27.09;52.46;100261.70;1683130;84;21112;-85
2021/07/12 11:55:39;;;;;;;6.35;5.83;;;;;;;27.14;52.89;100279.92;1685250;82;21030;-88